4XCWC LLHA-LLHA
Flight info
| Callsign | 4XCWC |
|---|---|
| Flight time | 0h 4m |
| Altitude | 1000 |
| Route | CVFR |
| Aircraft | DA40/L-VD/A |
Departure
| Time | 2026-04-14 14:42 |
|---|---|
| Airport | Uri Michaeli Haifa International Airport (LLHA) |
Arrival
| Time | 2026-04-14 14:46 |
|---|---|
| Airport | Uri Michaeli Haifa International Airport (LLHA) |
| Time | Latitude | Longitude | Altitude | Speed | Heading |
|---|---|---|---|---|---|
| 2026-04-14 14:34 | 32.81155 | 35.04175 | 19 ft | 0 kts | 140° |
| 2026-04-14 14:38 | 32.81146 | 35.04194 | 20 ft | 15 kts | 100° |
| 2026-04-14 14:38 | 32.81259 | 35.04268 | 24 ft | 26 kts | 340° |
| 2026-04-14 14:38 | 32.81474 | 35.04176 | 26 ft | 37 kts | 341° |
| 2026-04-14 14:39 | 32.81573 | 35.04120 | 30 ft | 7 kts | 123° |
| 2026-04-14 14:39 | 32.81506 | 35.04162 | 27 ft | 17 kts | 160° |
| 2026-04-14 14:39 | 32.81320 | 35.04243 | 23 ft | 56 kts | 159° |
| 2026-04-14 14:39 | 32.80781 | 35.04470 | 138 ft | 90 kts | 160° |
| 2026-04-14 14:40 | 32.80170 | 35.04632 | 445 ft | 91 kts | 169° |
| 2026-04-14 14:40 | 32.79844 | 35.04713 | 576 ft | 95 kts | 169° |
| 2026-04-14 14:42 | 32.79434 | 35.04796 | 678 ft | 102 kts | 166° |
| 2026-04-14 14:42 | 32.78833 | 35.05206 | 965 ft | 104 kts | 140° |
| 2026-04-14 14:42 | 32.78295 | 35.05751 | 1271 ft | 94 kts | 106° |
| 2026-04-14 14:43 | 32.78495 | 35.06429 | 1407 ft | 102 kts | 48° |
| 2026-04-14 14:43 | 32.79050 | 35.07058 | 1461 ft | 109 kts | 39° |
| 2026-04-14 14:43 | 32.79707 | 35.07388 | 1174 ft | 111 kts | 339° |
| 2026-04-14 14:43 | 32.80401 | 35.06897 | 1200 ft | 119 kts | 330° |
| 2026-04-14 14:44 | 32.81105 | 35.06350 | 1254 ft | 123 kts | 330° |
| 2026-04-14 14:44 | 32.81628 | 35.05691 | 1017 ft | 133 kts | 256° |
| 2026-04-14 14:44 | 32.82222 | 35.05153 | 1168 ft | 112 kts | 341° |
| 2026-04-14 14:44 | 32.82792 | 35.04615 | 1163 ft | 101 kts | 323° |
| 2026-04-14 14:45 | 32.83306 | 35.04096 | 1013 ft | 86 kts | 304° |
| 2026-04-14 14:45 | 32.83268 | 35.03664 | 935 ft | 90 kts | 235° |
| 2026-04-14 14:45 | 32.82654 | 35.03602 | 572 ft | 99 kts | 154° |
| 2026-04-14 14:45 | 32.82015 | 35.03928 | 249 ft | 100 kts | 156° |
| 2026-04-14 14:46 | 32.81376 | 35.04217 | 25 ft | 93 kts | 158° |
| 2026-04-14 14:46 | 32.80835 | 35.04463 | 21 ft | 63 kts | 155° |
| 2026-04-14 14:46 | 32.80608 | 35.04543 | 19 ft | 19 kts | 182° |
| 2026-04-14 14:46 | 32.80630 | 35.04549 | 20 ft | 15 kts | 331° |
| 2026-04-14 14:47 | 32.80793 | 35.04472 | 21 ft | 48 kts | 340° |
| 2026-04-14 14:47 | 32.81201 | 35.04279 | 23 ft | 49 kts | 300° |
| 2026-04-14 14:47 | 32.81135 | 35.04106 | 18 ft | 15 kts | 162° |
| 2026-04-14 14:47 | 32.81148 | 35.04127 | 19 ft | 7 kts | 287° |
| 2026-04-14 14:48 | 32.81153 | 35.04120 | 19 ft | 5 kts | 94° |
| 2026-04-14 14:48 | 32.81148 | 35.04130 | 19 ft | 0 kts | 147° |